createdAt,value
2018-06-19T00:01:51.712Z,92.20
2018-06-19T00:04:20.248Z,92.20
2018-06-19T00:06:48.777Z,92.00
2018-06-19T00:09:17.356Z,91.90
2018-06-19T00:11:45.881Z,91.70
2018-06-19T00:14:14.434Z,92.00
2018-06-19T00:16:42.998Z,92.00
2018-06-19T00:19:11.581Z,91.90
2018-06-19T00:21:47.176Z,91.90
2018-06-19T00:24:15.701Z,91.90
2018-06-19T00:26:44.252Z,91.80
2018-06-19T00:29:12.780Z,91.70
2018-06-19T00:31:41.382Z,91.10
2018-06-19T00:34:09.879Z,90.90
2018-06-19T00:36:38.439Z,90.50
2018-06-19T00:39:09.072Z,90.50
2018-06-19T00:41:37.654Z,90.00
2018-06-19T00:44:06.601Z,89.50
2018-06-19T00:49:04.077Z,88.90
2018-06-19T00:54:00.935Z,88.40
2018-06-19T00:59:04.257Z,88.40
2018-06-19T01:01:32.741Z,87.90
2018-06-19T01:06:30.668Z,88.00
2018-06-19T01:09:00.572Z,88.10
2018-06-19T01:11:29.092Z,88.10
2018-06-19T01:13:59.236Z,88.60
2018-06-19T01:18:56.109Z,88.40
2018-06-19T01:21:24.598Z,88.40
2018-06-19T01:23:53.163Z,88.20
2018-06-19T01:26:21.689Z,88.20
2018-06-19T01:28:50.217Z,88.50
2018-06-19T01:33:47.030Z,89.10
2018-06-19T01:36:15.580Z,89.10
2018-06-19T01:38:44.151Z,89.20
2018-06-19T01:41:12.710Z,89.20
2018-06-19T01:43:41.240Z,89.60
2018-06-19T01:46:09.833Z,89.80
2018-06-19T01:48:38.355Z,89.80
2018-06-19T01:51:06.844Z,90.00
2018-06-19T01:53:35.397Z,90.20
2018-06-19T01:56:03.911Z,90.30
2018-06-19T02:01:00.872Z,90.30
2018-06-19T02:03:30.448Z,90.50
2018-06-19T02:05:59.888Z,90.50
2018-06-19T02:10:57.833Z,91.10
2018-06-19T02:13:26.383Z,91.30
2018-06-19T02:15:54.929Z,91.40
2018-06-19T02:18:23.438Z,92.00
2018-06-19T02:20:52.012Z,91.60
2018-06-19T02:23:20.567Z,92.00
2018-06-19T02:25:49.128Z,92.10
2018-06-19T02:30:46.008Z,92.50
2018-06-19T02:33:14.511Z,92.70
2018-06-19T02:38:11.290Z,92.70
2018-06-19T02:40:39.945Z,92.70
2018-06-19T02:45:37.275Z,93.20
2018-06-19T02:48:05.834Z,92.70
2018-06-19T02:50:35.065Z,92.90
2018-06-19T02:53:04.105Z,92.90
2018-06-19T02:55:33.031Z,92.90
2018-06-19T02:58:02.407Z,92.90
2018-06-19T03:00:31.426Z,92.80
2018-06-19T03:03:00.583Z,92.70
2018-06-19T03:07:58.950Z,92.60
2018-06-19T03:10:28.131Z,92.60
2018-06-19T03:12:56.719Z,92.60
2018-06-19T03:15:25.227Z,92.40
2018-06-19T03:20:22.021Z,92.40
2018-06-19T03:22:50.528Z,92.30
2018-06-19T03:25:19.069Z,92.20
2018-06-19T03:30:15.893Z,92.20
2018-06-19T03:32:44.411Z,92.20
2018-06-19T03:35:12.931Z,92.30
2018-06-19T03:37:41.516Z,92.30
2018-06-19T03:40:10.107Z,92.50
2018-06-19T03:42:38.723Z,92.30
2018-06-19T03:50:03.803Z,92.30
2018-06-19T03:52:32.392Z,92.40
2018-06-19T03:55:00.911Z,92.30
2018-06-19T03:57:30.138Z,92.50
2018-06-19T03:59:59.481Z,92.60
2018-06-19T04:02:28.020Z,92.70
2018-06-19T04:04:56.646Z,92.60
2018-06-19T04:07:25.262Z,92.90
2018-06-19T04:09:53.791Z,92.80
2018-06-19T04:12:22.327Z,93.00
2018-06-19T04:14:50.871Z,92.90
2018-06-19T04:17:24.879Z,93.20
2018-06-19T04:19:54.365Z,93.10
2018-06-19T04:22:22.876Z,93.10
2018-06-19T04:24:51.417Z,93.30
2018-06-19T04:27:19.974Z,93.20
2018-06-19T04:29:48.483Z,93.20
2018-06-19T04:32:17.043Z,93.10
2018-06-19T04:37:13.959Z,93.40
2018-06-19T04:39:42.545Z,93.10
2018-06-19T04:42:11.167Z,92.60
2018-06-19T04:44:39.699Z,92.70
2018-06-19T04:47:08.235Z,92.50
2018-06-19T04:52:05.165Z,92.90
2018-06-19T04:54:33.726Z,92.20
2018-06-19T04:57:02.292Z,92.00
2018-06-19T04:59:30.793Z,91.90
2018-06-19T05:01:59.407Z,91.20
2018-06-19T05:04:28.930Z,90.80
2018-06-19T05:09:26.354Z,90.50
2018-06-19T05:11:54.866Z,90.30
2018-06-19T05:14:23.425Z,89.70
2018-06-19T05:16:51.923Z,89.00
2018-06-19T05:19:20.462Z,87.50
2018-06-19T05:21:49.053Z,87.50
2018-06-19T05:24:17.556Z,87.60
2018-06-19T05:26:46.075Z,88.00
2018-06-19T05:29:14.616Z,87.70
2018-06-19T05:31:43.162Z,87.00
2018-06-19T05:34:11.655Z,86.40
2018-06-19T05:36:40.376Z,85.70
2018-06-19T05:39:11.038Z,86.20
2018-06-19T05:41:39.885Z,85.20
2018-06-19T05:44:08.921Z,83.60
2018-06-19T05:46:38.234Z,81.30
2018-06-19T05:51:35.239Z,82.30
2018-06-19T05:54:03.747Z,81.60
2018-06-19T05:56:32.358Z,81.30
2018-06-19T06:01:30.209Z,82.00
2018-06-19T06:03:59.950Z,80.90
2018-06-19T06:08:58.922Z,78.40
2018-06-19T06:11:27.441Z,78.30
2018-06-19T06:13:55.987Z,76.80
2018-06-19T06:16:24.558Z,78.80
2018-06-19T06:18:53.551Z,76.60
2018-06-19T06:21:22.250Z,77.60
2018-06-19T06:23:50.803Z,75.90
2018-06-19T06:26:19.356Z,74.70
2018-06-19T06:33:44.502Z,74.60
2018-06-19T06:38:41.368Z,73.50
2018-06-19T06:41:10.004Z,72.90
2018-06-19T06:43:38.569Z,71.60
2018-06-19T06:48:35.419Z,71.00
2018-06-19T06:51:03.910Z,72.20
2018-06-19T06:53:32.477Z,71.40
2018-06-19T06:56:01.016Z,72.60
2018-06-19T07:03:26.218Z,70.90
2018-06-19T07:05:54.780Z,70.10
2018-06-19T07:08:25.031Z,69.00
2018-06-19T07:10:53.607Z,67.80
2018-06-19T07:13:22.139Z,68.40
2018-06-19T07:15:50.845Z,68.90
2018-06-19T07:18:19.363Z,66.50
2018-06-19T07:20:48.019Z,67.60
2018-06-19T07:23:16.623Z,65.40
2018-06-19T07:25:45.162Z,65.80
2018-06-19T07:28:13.776Z,65.30
2018-06-19T07:30:42.552Z,63.20
2018-06-19T07:33:11.202Z,63.90
2018-06-19T07:35:39.897Z,64.70
2018-06-19T07:38:08.875Z,65.40
2018-06-19T07:40:37.362Z,66.40
2018-06-19T07:48:04.146Z,66.10
2018-06-19T07:50:32.915Z,62.30
2018-06-19T07:55:31.394Z,61.30
2018-06-19T07:58:02.153Z,61.70
2018-06-19T08:00:32.451Z,62.40
2018-06-19T08:05:32.802Z,59.80
2018-06-19T08:08:02.296Z,60.20
2018-06-19T08:13:25.457Z,61.40
2018-06-19T08:16:22.428Z,60.70
2018-06-19T08:19:02.480Z,60.10
2018-06-19T08:21:34.190Z,60.60
2018-06-19T08:24:04.509Z,58.50
2018-06-19T08:26:33.882Z,57.20
2018-06-19T08:29:03.738Z,55.80
2018-06-19T08:31:40.649Z,56.70
2018-06-19T08:34:17.073Z,57.70
2018-06-19T08:36:54.092Z,55.90
2018-06-19T08:39:24.839Z,57.70
2018-06-19T08:42:10.247Z,56.10
2018-06-19T08:44:45.599Z,57.60
2018-06-19T08:47:26.824Z,54.90
2018-06-19T08:50:01.652Z,55.10
2018-06-19T08:52:32.919Z,54.60
2018-06-19T08:55:03.812Z,56.00
2018-06-19T08:57:38.320Z,57.50
2018-06-19T09:00:18.243Z,54.10
2018-06-19T09:02:57.549Z,53.20
2018-06-19T09:05:27.102Z,55.60
2018-06-19T09:07:58.285Z,53.00
2018-06-19T09:10:30.195Z,51.00
2018-06-19T09:13:01.430Z,52.50
2018-06-19T09:15:31.720Z,53.00
2018-06-19T09:18:13.454Z,56.70
2018-06-19T09:23:18.422Z,56.80
2018-06-19T09:25:47.632Z,53.80
2018-06-19T09:28:17.477Z,54.50
2018-06-19T09:30:46.871Z,55.20
2018-06-19T09:33:21.316Z,55.20
2018-06-19T09:35:57.830Z,55.20
2018-06-19T09:38:26.979Z,52.60
2018-06-19T09:40:59.872Z,53.30
2018-06-19T09:43:29.289Z,56.70
2018-06-19T09:46:00.530Z,53.70
2018-06-19T09:48:44.957Z,54.60
2018-06-19T09:51:17.596Z,54.10
2018-06-19T09:53:58.701Z,55.00
2018-06-19T09:56:30.940Z,54.70
2018-06-19T09:59:00.827Z,52.20
2018-06-19T10:01:31.536Z,52.70
2018-06-19T10:04:01.410Z,51.40
2018-06-19T10:06:34.561Z,53.20
2018-06-19T10:09:05.571Z,54.10
2018-06-19T10:11:34.545Z,52.10
2018-06-19T10:14:05.377Z,52.00
2018-06-19T10:19:05.673Z,52.90
2018-06-19T10:24:09.040Z,55.00
2018-06-19T10:26:41.672Z,53.00
2018-06-19T10:29:18.282Z,53.60
2018-06-19T10:34:29.315Z,52.40
2018-06-19T10:37:06.858Z,51.80
2018-06-19T10:39:38.191Z,52.80
2018-06-19T10:42:08.328Z,52.80
2018-06-19T10:44:38.085Z,54.00
2018-06-19T10:47:07.450Z,54.50
2018-06-19T10:49:39.109Z,54.40
2018-06-19T10:52:09.700Z,53.90
2018-06-19T10:54:40.924Z,56.00
2018-06-19T10:57:09.908Z,54.10
2018-06-19T10:59:40.995Z,54.90
2018-06-19T11:02:12.985Z,53.60
2018-06-19T11:04:45.336Z,53.60
2018-06-19T11:07:14.191Z,53.80
2018-06-19T11:09:42.934Z,53.10
2018-06-19T11:12:13.655Z,52.70
2018-06-19T11:14:43.396Z,51.60
2018-06-19T11:17:13.091Z,53.60
2018-06-19T11:19:45.755Z,53.10
2018-06-19T11:22:15.907Z,53.60
2018-06-19T11:24:45.322Z,52.60
2018-06-19T11:27:16.517Z,53.00
2018-06-19T11:29:47.580Z,52.40
2018-06-19T11:32:17.029Z,54.10
2018-06-19T11:34:46.891Z,54.10
2018-06-19T11:37:16.462Z,52.60
2018-06-19T11:39:46.851Z,52.90
2018-06-19T11:42:17.361Z,56.00
2018-06-19T11:44:46.612Z,55.60
2018-06-19T11:47:16.629Z,55.20
2018-06-19T11:49:47.315Z,54.40
2018-06-19T11:52:16.566Z,53.70
2018-06-19T11:54:50.353Z,53.50
2018-06-19T12:00:07.454Z,54.80
2018-06-19T12:02:48.450Z,55.10
2018-06-19T12:07:49.485Z,57.10
2018-06-19T12:10:20.845Z,56.00
2018-06-19T12:12:50.220Z,54.80
2018-06-19T12:15:20.189Z,54.50
2018-06-19T12:18:02.855Z,53.30
2018-06-19T12:20:33.432Z,54.10
2018-06-19T12:23:02.673Z,56.20
2018-06-19T12:25:34.747Z,54.30
2018-06-19T12:28:04.260Z,54.20
2018-06-19T12:30:35.770Z,53.70
2018-06-19T12:33:04.768Z,54.30
2018-06-19T12:35:34.138Z,53.00
2018-06-19T12:38:08.376Z,54.60
2018-06-19T12:40:51.219Z,52.60
2018-06-19T12:43:20.676Z,52.70
2018-06-19T12:45:50.048Z,53.40
2018-06-19T12:48:28.421Z,52.20
2018-06-19T12:52:08.625Z,52.50
2018-06-19T12:57:11.986Z,55.00
2018-06-19T12:59:42.141Z,55.30
2018-06-19T13:02:11.747Z,53.90
2018-06-19T13:04:55.447Z,54.50
2018-06-19T13:07:32.953Z,54.90
2018-06-19T13:10:03.332Z,55.10
2018-06-19T13:12:47.647Z,55.70
2018-06-19T13:15:22.033Z,56.70
2018-06-19T13:19:03.023Z,56.20
2018-06-19T13:21:35.448Z,55.80
2018-06-19T13:24:08.618Z,55.60
2018-06-19T13:26:40.290Z,56.30
2018-06-19T13:29:49.321Z,56.70
2018-06-19T13:32:19.568Z,57.60
2018-06-19T13:34:48.868Z,58.10
2018-06-19T13:37:17.512Z,58.90
2018-06-19T13:39:46.757Z,59.60
2018-06-19T13:42:48.215Z,59.30
2018-06-19T13:45:17.845Z,59.40
2018-06-19T13:47:47.704Z,59.70
2018-06-19T13:50:18.857Z,59.40
2018-06-19T13:52:47.561Z,59.80
2018-06-19T13:57:35.698Z,60.20
2018-06-19T14:00:08.602Z,60.70
2018-06-19T14:02:38.118Z,61.40
2018-06-19T14:05:08.115Z,62.00
2018-06-19T14:07:43.973Z,62.60
2018-06-19T14:10:24.045Z,62.80
2018-06-19T14:13:00.869Z,62.60
2018-06-19T14:15:34.713Z,62.90
2018-06-19T14:18:03.648Z,64.00
2018-06-19T14:20:34.569Z,63.70
2018-06-19T14:23:03.333Z,64.50
2018-06-19T14:25:32.108Z,64.50
2018-06-19T14:30:29.324Z,63.90
2018-06-19T14:32:58.120Z,65.00
2018-06-19T14:35:27.064Z,64.50
2018-06-19T14:37:55.852Z,65.00
2018-06-19T14:45:39.782Z,65.00
2018-06-19T14:48:09.591Z,65.30
2018-06-19T14:53:08.578Z,65.80
2018-06-19T14:55:37.906Z,65.40
2018-06-19T14:58:07.099Z,65.20
2018-06-19T15:00:36.126Z,64.80
2018-06-19T15:03:11.573Z,64.90
2018-06-19T15:05:53.388Z,65.40
2018-06-19T15:08:26.680Z,65.60
2018-06-19T15:10:57.454Z,65.70
2018-06-19T15:13:26.277Z,65.90
2018-06-19T15:15:55.356Z,66.30
2018-06-19T15:18:25.202Z,66.30
2018-06-19T15:20:55.994Z,65.70
2018-06-19T15:23:29.148Z,66.80
2018-06-19T15:25:58.484Z,67.50
2018-06-19T15:28:28.535Z,67.30
2018-06-19T15:30:57.748Z,67.20
2018-06-19T15:33:26.644Z,67.20
2018-06-19T15:36:00.096Z,68.00
2018-06-19T15:38:42.491Z,69.00
2018-06-19T15:41:11.633Z,69.30
2018-06-19T15:43:44.427Z,68.50
2018-06-19T15:46:13.626Z,68.70
2018-06-19T15:48:44.327Z,69.10
2018-06-19T15:51:13.218Z,68.20
2018-06-19T15:53:41.907Z,69.50
2018-06-19T15:58:40.543Z,72.30
2018-06-19T16:01:10.593Z,70.10
2018-06-19T16:03:39.930Z,69.40
2018-06-19T16:06:10.461Z,68.50
2018-06-19T16:08:39.639Z,69.00
2018-06-19T16:11:09.511Z,69.40
2018-06-19T16:13:40.249Z,67.70
2018-06-19T16:16:09.839Z,67.60
2018-06-19T16:18:39.275Z,67.60
2018-06-19T16:21:08.683Z,68.50
2018-06-19T16:23:39.887Z,66.50
2018-06-19T16:26:09.288Z,66.20
2018-06-19T16:28:38.779Z,66.50
2018-06-19T16:31:07.468Z,65.20
2018-06-19T16:33:36.249Z,65.20
2018-06-19T16:36:05.237Z,65.40
2018-06-19T16:38:34.147Z,65.90
2018-06-19T16:41:02.982Z,66.40
2018-06-19T16:43:47.066Z,67.40
2018-06-19T16:46:16.923Z,68.30
2018-06-19T16:48:45.676Z,67.10
2018-06-19T16:51:14.503Z,66.10
2018-06-19T16:53:44.267Z,67.10
2018-06-19T16:56:12.850Z,66.20
2018-06-19T16:58:42.442Z,65.80
2018-06-19T17:01:11.312Z,66.50
2018-06-19T17:03:40.827Z,68.10
2018-06-19T17:06:10.197Z,67.10
2018-06-19T17:08:39.659Z,67.10
2018-06-19T17:11:09.717Z,68.00
2018-06-19T17:13:39.147Z,67.80
2018-06-19T17:16:08.707Z,66.80
2018-06-19T17:18:37.472Z,67.80
2018-06-19T17:21:06.517Z,67.80
2018-06-19T17:23:35.631Z,68.30
2018-06-19T17:26:04.434Z,66.90
2018-06-19T17:28:33.223Z,67.10
2018-06-19T17:33:30.341Z,66.50
2018-06-19T17:35:59.019Z,65.70
2018-06-19T17:38:27.835Z,65.50
2018-06-19T17:43:26.235Z,64.20
2018-06-19T17:45:55.448Z,65.80
2018-06-19T17:48:24.413Z,65.20
2018-06-19T17:50:53.767Z,65.80
2018-06-19T17:53:22.675Z,66.00
2018-06-19T17:55:51.493Z,66.40
2018-06-19T17:58:20.249Z,65.80
2018-06-19T18:00:49.022Z,65.70
2018-06-19T18:03:17.644Z,67.10
2018-06-19T18:05:46.442Z,66.40
2018-06-19T18:08:15.230Z,67.60
2018-06-19T18:10:43.878Z,67.00
2018-06-19T18:13:12.863Z,67.70
2018-06-19T18:15:42.415Z,68.70
2018-06-19T18:18:11.987Z,68.80
2018-06-19T18:20:41.837Z,68.50
2018-06-19T18:23:11.468Z,70.20
2018-06-19T18:25:41.051Z,71.10
2018-06-19T18:28:10.523Z,71.60
2018-06-19T18:30:39.906Z,72.40
2018-06-19T18:33:10.538Z,72.50
2018-06-19T18:35:39.969Z,72.60
2018-06-19T18:38:09.410Z,72.80
2018-06-19T18:40:38.203Z,73.40
2018-06-19T18:45:50.253Z,74.30
2018-06-19T18:48:19.188Z,74.80
2018-06-19T18:50:47.974Z,75.90
2018-06-19T18:53:16.906Z,76.20
2018-06-19T18:55:45.794Z,76.60
2018-06-19T19:00:43.009Z,77.40
2018-06-19T19:03:13.464Z,77.80
2018-06-19T19:05:43.391Z,78.60
2018-06-19T19:08:23.052Z,79.10
2018-06-19T19:10:54.620Z,79.50
2018-06-19T19:13:24.731Z,80.00
2018-06-19T19:15:59.747Z,80.40
2018-06-19T19:18:34.006Z,80.70
2018-06-19T19:21:04.285Z,81.70
2018-06-19T19:23:34.069Z,81.90
2018-06-19T19:26:04.973Z,83.00
2018-06-19T19:28:39.971Z,82.70
2018-06-19T19:31:10.287Z,83.10
2018-06-19T19:37:15.200Z,84.00
2018-06-19T19:39:44.612Z,84.50
2018-06-19T19:42:14.144Z,85.60
2018-06-19T19:44:45.883Z,86.30
2018-06-19T19:47:20.407Z,86.60
2018-06-19T19:49:50.719Z,86.90
2018-06-19T19:52:21.115Z,87.70
2018-06-19T19:57:26.100Z,88.60
2018-06-19T19:59:55.772Z,89.20
2018-06-19T20:02:25.104Z,89.80
2018-06-19T20:04:54.226Z,90.00
2018-06-19T20:07:24.547Z,90.00
2018-06-19T20:09:54.682Z,90.10
2018-06-19T20:12:25.151Z,90.40
2018-06-19T20:17:25.943Z,90.60
2018-06-19T20:19:56.147Z,90.70
2018-06-19T20:22:27.069Z,90.90
2018-06-19T20:24:56.264Z,91.00
2018-06-19T20:27:25.275Z,91.30
2018-06-19T20:29:55.704Z,91.20
2018-06-19T20:32:26.105Z,91.40
2018-06-19T20:35:19.709Z,91.50
2018-06-19T20:38:02.398Z,91.90
2018-06-19T20:40:31.579Z,92.10
2018-06-19T20:43:12.324Z,92.20
2018-06-19T20:45:44.058Z,92.20
2018-06-19T20:48:26.339Z,92.30
2018-06-19T20:50:56.384Z,92.20
2018-06-19T20:53:26.870Z,92.60
2018-06-19T20:55:57.047Z,92.60
2018-06-19T20:58:27.398Z,92.70
2018-06-19T21:00:56.644Z,92.90
2018-06-19T21:03:26.994Z,92.90
2018-06-19T21:05:56.152Z,93.10
2018-06-19T21:08:30.958Z,93.10
2018-06-19T21:11:01.672Z,93.30
2018-06-19T21:13:31.975Z,93.40
2018-06-19T21:16:02.467Z,93.50
2018-06-19T21:18:32.100Z,93.60
2018-06-19T21:23:37.522Z,94.20
2018-06-19T21:26:07.642Z,93.80
2018-06-19T21:28:38.425Z,94.10
2018-06-19T21:31:08.304Z,94.40
2018-06-19T21:33:39.006Z,94.40
2018-06-19T21:36:08.951Z,94.60
2018-06-19T21:41:08.291Z,94.30
2018-06-19T21:43:37.583Z,94.50
2018-06-19T21:46:07.889Z,94.60
2018-06-19T21:48:40.456Z,94.60
2018-06-19T21:51:10.403Z,94.70
2018-06-19T21:53:41.421Z,94.80
2018-06-19T21:56:10.961Z,94.90
2018-06-19T21:59:01.901Z,95.00
2018-06-19T22:01:31.516Z,95.20
2018-06-19T22:04:27.216Z,95.10
2018-06-19T22:06:58.425Z,95.10
2018-06-19T22:09:31.022Z,95.40
2018-06-19T22:12:00.479Z,95.50
2018-06-19T22:14:31.206Z,95.80
2018-06-19T22:17:00.348Z,95.60
2018-06-19T22:19:29.470Z,95.70
2018-06-19T22:21:59.603Z,96.10
2018-06-19T22:24:30.079Z,96.20
2018-06-19T22:27:04.313Z,96.10
2018-06-19T22:29:33.918Z,96.10
2018-06-19T22:32:05.687Z,96.10
2018-06-19T22:34:34.549Z,96.50
2018-06-19T22:37:05.550Z,96.30
2018-06-19T22:39:37.936Z,96.40
2018-06-19T22:42:15.670Z,96.40
2018-06-19T22:44:45.934Z,96.50
2018-06-19T22:47:15.788Z,96.50
2018-06-19T22:49:44.737Z,96.40
2018-06-19T22:52:15.175Z,96.40
2018-06-19T22:54:44.143Z,96.50
2018-06-19T22:57:14.139Z,96.30
2018-06-19T22:59:43.800Z,96.90
2018-06-19T23:02:13.812Z,96.80
2018-06-19T23:04:43.668Z,96.80
2018-06-19T23:07:13.645Z,97.00
2018-06-19T23:09:44.032Z,97.00
2018-06-19T23:12:17.546Z,97.00
2018-06-19T23:14:46.476Z,97.00
2018-06-19T23:17:15.071Z,97.10
2018-06-19T23:19:43.692Z,97.10
2018-06-19T23:22:13.333Z,97.20
2018-06-19T23:24:43.195Z,97.20
2018-06-19T23:27:12.105Z,97.30
2018-06-19T23:29:40.649Z,97.50
2018-06-19T23:32:09.253Z,97.70
2018-06-19T23:34:38.093Z,97.70
2018-06-19T23:37:07.115Z,97.80
2018-06-19T23:39:36.020Z,97.70
2018-06-19T23:42:04.671Z,97.70
2018-06-19T23:44:33.771Z,97.70
2018-06-19T23:47:02.495Z,97.70
2018-06-19T23:51:59.878Z,97.80
2018-06-19T23:56:57.639Z,98.10
2018-06-19T23:59:26.237Z,98.00
